Orogrande, New Mexico
Current Conditions -  °F | °C
As of 1:56 AM on Friday 24 Oct 2014 (Local Time) from KM63 Reporting Station
Clear Clear  
Wind Chill: 63°   Ceiling: Unl
Heat Index: 63°   Visibility: 10mi
Dew Point: 50°   Wind: 2mph
Humidity: 63%   Direction: NA
Pressure: 30.2"   Gusts: NA
Location:  32.39°N, 106.09°W
Report Text: KM63 240756Z AUTO VRB02KT 10SM CLR 17/10 A3020 RMK AO2 SLP166 T01710100
Loading
Personal Weather Stations






























Interactive Weather Map
Tropical Storm Tracking
New forecast layout! Learn more

10-Day Weather Forecast

Advertisements
Track Severe Weather on mobile